sensor_id;sensor_type;location;lat;lon;timestamp;P1;durP1;ratioP1;P2;durP2;ratioP2
59974;SDS011;62136;-35.664;-63.766;2024-03-08T00:00:10;5.50;;;3.30;;
59974;SDS011;62136;-35.664;-63.766;2024-03-08T00:02:39;5.32;;;3.35;;
59974;SDS011;62136;-35.664;-63.766;2024-03-08T00:05:06;5.28;;;3.50;;
59974;SDS011;62136;-35.664;-63.766;2024-03-08T00:07:35;7.40;;;3.50;;
59974;SDS011;62136;-35.664;-63.766;2024-03-08T00:10:03;4.03;;;2.97;;
59974;SDS011;62136;-35.664;-63.766;2024-03-08T00:12:30;5.85;;;3.60;;
59974;SDS011;62136;-35.664;-63.766;2024-03-08T00:14:57;4.68;;;3.25;;
59974;SDS011;62136;-35.664;-63.766;2024-03-08T00:17:24;5.78;;;3.35;;
59974;SDS011;62136;-35.664;-63.766;2024-03-08T00:19:52;5.00;;;3.25;;
59974;SDS011;62136;-35.664;-63.766;2024-03-08T00:22:19;4.68;;;3.60;;
59974;SDS011;62136;-35.664;-63.766;2024-03-08T00:24:47;4.72;;;3.22;;
59974;SDS011;62136;-35.664;-63.766;2024-03-08T00:27:17;7.93;;;3.65;;
59974;SDS011;62136;-35.664;-63.766;2024-03-08T00:29:46;5.47;;;3.42;;
59974;SDS011;62136;-35.664;-63.766;2024-03-08T00:32:13;8.38;;;3.67;;
59974;SDS011;62136;-35.664;-63.766;2024-03-08T00:34:40;5.22;;;3.45;;
59974;SDS011;62136;-35.664;-63.766;2024-03-08T00:37:08;6.03;;;3.42;;
59974;SDS011;62136;-35.664;-63.766;2024-03-08T00:39:35;4.55;;;3.53;;
59974;SDS011;62136;-35.664;-63.766;2024-03-08T00:42:02;4.65;;;3.30;;
59974;SDS011;62136;-35.664;-63.766;2024-03-08T00:44:29;4.15;;;3.10;;
59974;SDS011;62136;-35.664;-63.766;2024-03-08T00:46:57;5.53;;;3.70;;
59974;SDS011;62136;-35.664;-63.766;2024-03-08T00:49:24;6.78;;;3.60;;
59974;SDS011;62136;-35.664;-63.766;2024-03-08T00:51:51;5.63;;;3.30;;
59974;SDS011;62136;-35.664;-63.766;2024-03-08T00:54:18;5.00;;;3.30;;
59974;SDS011;62136;-35.664;-63.766;2024-03-08T00:56:45;3.75;;;3.35;;
59974;SDS011;62136;-35.664;-63.766;2024-03-08T00:59:12;4.75;;;3.55;;
59974;SDS011;62136;-35.664;-63.766;2024-03-08T01:01:40;4.90;;;3.72;;
59974;SDS011;62136;-35.664;-63.766;2024-03-08T01:04:07;4.18;;;3.35;;
59974;SDS011;62136;-35.664;-63.766;2024-03-08T01:06:34;4.60;;;3.58;;
59974;SDS011;62136;-35.664;-63.766;2024-03-08T01:09:01;6.13;;;3.60;;
59974;SDS011;62136;-35.664;-63.766;2024-03-08T01:11:28;5.07;;;3.30;;
59974;SDS011;62136;-35.664;-63.766;2024-03-08T01:13:55;4.43;;;3.72;;
59974;SDS011;62136;-35.664;-63.766;2024-03-08T01:16:22;4.07;;;3.30;;
59974;SDS011;62136;-35.664;-63.766;2024-03-08T01:18:49;5.80;;;3.60;;
59974;SDS011;62136;-35.664;-63.766;2024-03-08T01:21:16;4.43;;;3.28;;
59974;SDS011;62136;-35.664;-63.766;2024-03-08T01:23:43;4.05;;;3.05;;
59974;SDS011;62136;-35.664;-63.766;2024-03-08T01:26:10;6.00;;;3.17;;
59974;SDS011;62136;-35.664;-63.766;2024-03-08T01:28:37;5.30;;;3.53;;
59974;SDS011;62136;-35.664;-63.766;2024-03-08T01:31:04;5.35;;;3.55;;
59974;SDS011;62136;-35.664;-63.766;2024-03-08T01:33:31;6.82;;;3.53;;
59974;SDS011;62136;-35.664;-63.766;2024-03-08T01:35:58;3.80;;;3.30;;
59974;SDS011;62136;-35.664;-63.766;2024-03-08T01:38:25;3.90;;;3.38;;
59974;SDS011;62136;-35.664;-63.766;2024-03-08T01:40:52;6.60;;;3.38;;
59974;SDS011;62136;-35.664;-63.766;2024-03-08T01:43:25;4.03;;;3.47;;
59974;SDS011;62136;-35.664;-63.766;2024-03-08T01:45:58;4.60;;;3.35;;
59974;SDS011;62136;-35.664;-63.766;2024-03-08T01:48:26;4.65;;;3.83;;
59974;SDS011;62136;-35.664;-63.766;2024-03-08T01:50:55;6.40;;;3.80;;
59974;SDS011;62136;-35.664;-63.766;2024-03-08T01:53:24;6.13;;;3.30;;
59974;SDS011;62136;-35.664;-63.766;2024-03-08T01:55:54;5.75;;;3.78;;
59974;SDS011;62136;-35.664;-63.766;2024-03-08T01:58:24;5.65;;;3.65;;
59974;SDS011;62136;-35.664;-63.766;2024-03-08T02:00:53;6.00;;;3.85;;
59974;SDS011;62136;-35.664;-63.766;2024-03-08T02:03:23;4.40;;;3.40;;
59974;SDS011;62136;-35.664;-63.766;2024-03-08T02:05:50;5.82;;;3.72;;
59974;SDS011;62136;-35.664;-63.766;2024-03-08T02:08:17;5.80;;;3.50;;
59974;SDS011;62136;-35.664;-63.766;2024-03-08T02:10:48;6.22;;;3.83;;
59974;SDS011;62136;-35.664;-63.766;2024-03-08T02:13:15;5.72;;;3.50;;
59974;SDS011;62136;-35.664;-63.766;2024-03-08T02:18:22;4.63;;;3.60;;
59974;SDS011;62136;-35.664;-63.766;2024-03-08T02:20:53;4.93;;;3.15;;
59974;SDS011;62136;-35.664;-63.766;2024-03-08T02:23:30;4.45;;;3.42;;
59974;SDS011;62136;-35.664;-63.766;2024-03-08T02:25:58;5.10;;;3.63;;
59974;SDS011;62136;-35.664;-63.766;2024-03-08T02:28:26;5.45;;;3.85;;
59974;SDS011;62136;-35.664;-63.766;2024-03-08T02:30:53;5.22;;;3.50;;
59974;SDS011;62136;-35.664;-63.766;2024-03-08T02:33:21;6.65;;;4.07;;
59974;SDS011;62136;-35.664;-63.766;2024-03-08T02:35:49;4.53;;;3.70;;
59974;SDS011;62136;-35.664;-63.766;2024-03-08T02:38:17;4.70;;;3.60;;
59974;SDS011;62136;-35.664;-63.766;2024-03-08T02:40:45;4.00;;;3.35;;
59974;SDS011;62136;-35.664;-63.766;2024-03-08T02:43:15;5.88;;;3.90;;
59974;SDS011;62136;-35.664;-63.766;2024-03-08T02:45:43;5.20;;;3.55;;
59974;SDS011;62136;-35.664;-63.766;2024-03-08T02:48:11;4.32;;;3.50;;
59974;SDS011;62136;-35.664;-63.766;2024-03-08T02:50:39;4.68;;;3.70;;
59974;SDS011;62136;-35.664;-63.766;2024-03-08T02:53:07;5.40;;;3.35;;
59974;SDS011;62136;-35.664;-63.766;2024-03-08T02:55:35;5.82;;;3.65;;
59974;SDS011;62136;-35.664;-63.766;2024-03-08T02:58:03;5.47;;;3.65;;
59974;SDS011;62136;-35.664;-63.766;2024-03-08T03:00:30;5.40;;;3.65;;
59974;SDS011;62136;-35.664;-63.766;2024-03-08T03:02:58;5.15;;;3.40;;
59974;SDS011;62136;-35.664;-63.766;2024-03-08T03:05:25;5.38;;;3.75;;
59974;SDS011;62136;-35.664;-63.766;2024-03-08T03:07:52;6.40;;;3.85;;
59974;SDS011;62136;-35.664;-63.766;2024-03-08T03:10:19;5.30;;;3.85;;
59974;SDS011;62136;-35.664;-63.766;2024-03-08T03:12:47;5.95;;;3.70;;
59974;SDS011;62136;-35.664;-63.766;2024-03-08T03:15:14;5.30;;;3.65;;
59974;SDS011;62136;-35.664;-63.766;2024-03-08T03:17:47;4.93;;;3.22;;
59974;SDS011;62136;-35.664;-63.766;2024-03-08T03:20:26;6.22;;;3.80;;
59974;SDS011;62136;-35.664;-63.766;2024-03-08T03:23:08;5.13;;;3.55;;
59974;SDS011;62136;-35.664;-63.766;2024-03-08T03:25:39;6.03;;;3.63;;
59974;SDS011;62136;-35.664;-63.766;2024-03-08T03:28:07;6.60;;;4.03;;
59974;SDS011;62136;-35.664;-63.766;2024-03-08T03:30:36;6.00;;;3.78;;
59974;SDS011;62136;-35.664;-63.766;2024-03-08T03:33:03;5.93;;;3.60;;
59974;SDS011;62136;-35.664;-63.766;2024-03-08T03:35:33;5.38;;;3.63;;
59974;SDS011;62136;-35.664;-63.766;2024-03-08T03:38:01;4.45;;;3.40;;
59974;SDS011;62136;-35.664;-63.766;2024-03-08T03:40:32;5.75;;;4.25;;
59974;SDS011;62136;-35.664;-63.766;2024-03-08T03:43:00;5.20;;;3.80;;
59974;SDS011;62136;-35.664;-63.766;2024-03-08T03:45:31;5.65;;;3.78;;
59974;SDS011;62136;-35.664;-63.766;2024-03-08T03:48:01;4.93;;;4.22;;
59974;SDS011;62136;-35.664;-63.766;2024-03-08T03:50:34;5.32;;;4.18;;
59974;SDS011;62136;-35.664;-63.766;2024-03-08T03:53:02;6.03;;;3.88;;
59974;SDS011;62136;-35.664;-63.766;2024-03-08T03:55:29;5.50;;;4.35;;
59974;SDS011;62136;-35.664;-63.766;2024-03-08T03:57:56;6.57;;;4.25;;
59974;SDS011;62136;-35.664;-63.766;2024-03-08T04:00:24;7.38;;;4.10;;
59974;SDS011;62136;-35.664;-63.766;2024-03-08T04:02:52;5.70;;;4.15;;
59974;SDS011;62136;-35.664;-63.766;2024-03-08T04:05:20;5.15;;;3.88;;
59974;SDS011;62136;-35.664;-63.766;2024-03-08T04:07:47;5.03;;;3.78;;
59974;SDS011;62136;-35.664;-63.766;2024-03-08T04:10:14;4.85;;;4.03;;
59974;SDS011;62136;-35.664;-63.766;2024-03-08T04:12:41;6.75;;;4.28;;
59974;SDS011;62136;-35.664;-63.766;2024-03-08T04:15:08;4.82;;;4.03;;
59974;SDS011;62136;-35.664;-63.766;2024-03-08T04:17:36;6.40;;;4.25;;
59974;SDS011;62136;-35.664;-63.766;2024-03-08T04:20:03;5.53;;;3.88;;
59974;SDS011;62136;-35.664;-63.766;2024-03-08T04:22:38;6.63;;;4.60;;
59974;SDS011;62136;-35.664;-63.766;2024-03-08T04:25:05;5.97;;;4.20;;
59974;SDS011;62136;-35.664;-63.766;2024-03-08T04:27:33;6.53;;;4.30;;
59974;SDS011;62136;-35.664;-63.766;2024-03-08T04:30:00;5.35;;;4.20;;
59974;SDS011;62136;-35.664;-63.766;2024-03-08T04:32:33;6.38;;;4.18;;
59974;SDS011;62136;-35.664;-63.766;2024-03-08T04:35:00;5.72;;;4.38;;
59974;SDS011;62136;-35.664;-63.766;2024-03-08T04:37:28;5.53;;;4.53;;
59974;SDS011;62136;-35.664;-63.766;2024-03-08T04:39:55;5.45;;;4.88;;
59974;SDS011;62136;-35.664;-63.766;2024-03-08T04:42:22;6.07;;;4.75;;
59974;SDS011;62136;-35.664;-63.766;2024-03-08T04:44:50;6.70;;;4.65;;
59974;SDS011;62136;-35.664;-63.766;2024-03-08T04:47:19;7.53;;;4.78;;
59974;SDS011;62136;-35.664;-63.766;2024-03-08T04:49:46;5.20;;;4.70;;
59974;SDS011;62136;-35.664;-63.766;2024-03-08T04:52:13;6.65;;;4.80;;
59974;SDS011;62136;-35.664;-63.766;2024-03-08T04:54:39;6.65;;;4.47;;
59974;SDS011;62136;-35.664;-63.766;2024-03-08T04:57:06;5.93;;;4.50;;
59974;SDS011;62136;-35.664;-63.766;2024-03-08T04:59:33;5.60;;;4.65;;
59974;SDS011;62136;-35.664;-63.766;2024-03-08T05:02:01;5.30;;;4.10;;
59974;SDS011;62136;-35.664;-63.766;2024-03-08T05:04:28;6.05;;;4.80;;
59974;SDS011;62136;-35.664;-63.766;2024-03-08T05:06:55;5.22;;;4.30;;
59974;SDS011;62136;-35.664;-63.766;2024-03-08T05:09:22;7.88;;;4.93;;
59974;SDS011;62136;-35.664;-63.766;2024-03-08T05:11:49;5.10;;;4.15;;
59974;SDS011;62136;-35.664;-63.766;2024-03-08T05:14:16;6.32;;;4.68;;
59974;SDS011;62136;-35.664;-63.766;2024-03-08T05:16:46;6.45;;;4.90;;
59974;SDS011;62136;-35.664;-63.766;2024-03-08T05:19:16;7.30;;;4.38;;
59974;SDS011;62136;-35.664;-63.766;2024-03-08T05:21:44;7.82;;;4.88;;
59974;SDS011;62136;-35.664;-63.766;2024-03-08T05:24:12;5.97;;;4.50;;
59974;SDS011;62136;-35.664;-63.766;2024-03-08T05:26:40;7.95;;;5.28;;
59974;SDS011;62136;-35.664;-63.766;2024-03-08T05:29:08;6.88;;;4.47;;
59974;SDS011;62136;-35.664;-63.766;2024-03-08T05:31:48;4.95;;;4.40;;
59974;SDS011;62136;-35.664;-63.766;2024-03-08T05:34:20;6.78;;;5.63;;
59974;SDS011;62136;-35.664;-63.766;2024-03-08T05:36:48;6.18;;;4.65;;
59974;SDS011;62136;-35.664;-63.766;2024-03-08T05:39:14;6.10;;;5.03;;
59974;SDS011;62136;-35.664;-63.766;2024-03-08T05:41:45;7.55;;;5.78;;
59974;SDS011;62136;-35.664;-63.766;2024-03-08T05:44:12;5.95;;;4.60;;
59974;SDS011;62136;-35.664;-63.766;2024-03-08T05:46:40;6.43;;;5.10;;
59974;SDS011;62136;-35.664;-63.766;2024-03-08T05:49:07;7.15;;;5.15;;
59974;SDS011;62136;-35.664;-63.766;2024-03-08T05:51:36;8.20;;;4.97;;
59974;SDS011;62136;-35.664;-63.766;2024-03-08T05:54:05;5.97;;;5.00;;
59974;SDS011;62136;-35.664;-63.766;2024-03-08T05:56:39;5.72;;;4.85;;
59974;SDS011;62136;-35.664;-63.766;2024-03-08T05:59:10;7.78;;;4.95;;
59974;SDS011;62136;-35.664;-63.766;2024-03-08T06:01:37;6.38;;;5.40;;
59974;SDS011;62136;-35.664;-63.766;2024-03-08T06:04:06;5.88;;;4.85;;
59974;SDS011;62136;-35.664;-63.766;2024-03-08T06:06:33;6.78;;;5.20;;
59974;SDS011;62136;-35.664;-63.766;2024-03-08T06:09:03;5.68;;;4.70;;
59974;SDS011;62136;-35.664;-63.766;2024-03-08T06:11:36;6.95;;;5.20;;
59974;SDS011;62136;-35.664;-63.766;2024-03-08T06:14:03;6.18;;;5.05;;
59974;SDS011;62136;-35.664;-63.766;2024-03-08T06:16:31;6.47;;;5.07;;
59974;SDS011;62136;-35.664;-63.766;2024-03-08T06:18:59;6.97;;;5.43;;
59974;SDS011;62136;-35.664;-63.766;2024-03-08T06:21:28;7.00;;;4.90;;
59974;SDS011;62136;-35.664;-63.766;2024-03-08T06:23:55;6.45;;;5.30;;
59974;SDS011;62136;-35.664;-63.766;2024-03-08T06:26:23;6.75;;;5.30;;
59974;SDS011;62136;-35.664;-63.766;2024-03-08T06:28:51;6.88;;;5.28;;
59974;SDS011;62136;-35.664;-63.766;2024-03-08T06:31:17;7.00;;;5.32;;
59974;SDS011;62136;-35.664;-63.766;2024-03-08T06:33:45;7.90;;;5.05;;
59974;SDS011;62136;-35.664;-63.766;2024-03-08T06:36:15;7.47;;;5.28;;
59974;SDS011;62136;-35.664;-63.766;2024-03-08T06:38:47;6.45;;;5.03;;
59974;SDS011;62136;-35.664;-63.766;2024-03-08T06:41:14;7.35;;;5.22;;
59974;SDS011;62136;-35.664;-63.766;2024-03-08T06:43:42;7.70;;;5.10;;
59974;SDS011;62136;-35.664;-63.766;2024-03-08T06:46:10;7.45;;;4.85;;
59974;SDS011;62136;-35.664;-63.766;2024-03-08T06:48:38;7.10;;;5.20;;
59974;SDS011;62136;-35.664;-63.766;2024-03-08T06:51:05;5.65;;;5.05;;
59974;SDS011;62136;-35.664;-63.766;2024-03-08T06:53:33;8.80;;;5.10;;
59974;SDS011;62136;-35.664;-63.766;2024-03-08T06:56:01;8.90;;;5.57;;
59974;SDS011;62136;-35.664;-63.766;2024-03-08T06:58:33;6.93;;;4.80;;
59974;SDS011;62136;-35.664;-63.766;2024-03-08T07:01:00;6.88;;;5.35;;
59974;SDS011;62136;-35.664;-63.766;2024-03-08T07:03:29;7.00;;;5.22;;
59974;SDS011;62136;-35.664;-63.766;2024-03-08T07:05:57;6.68;;;5.30;;
59974;SDS011;62136;-35.664;-63.766;2024-03-08T07:08:25;6.80;;;5.32;;
59974;SDS011;62136;-35.664;-63.766;2024-03-08T07:10:55;6.60;;;5.10;;
59974;SDS011;62136;-35.664;-63.766;2024-03-08T07:13:23;8.15;;;5.78;;
59974;SDS011;62136;-35.664;-63.766;2024-03-08T07:15:50;6.03;;;4.68;;
59974;SDS011;62136;-35.664;-63.766;2024-03-08T07:18:17;6.13;;;5.03;;
59974;SDS011;62136;-35.664;-63.766;2024-03-08T07:20:44;6.63;;;5.07;;
59974;SDS011;62136;-35.664;-63.766;2024-03-08T07:23:11;8.40;;;5.68;;
59974;SDS011;62136;-35.664;-63.766;2024-03-08T07:25:58;9.05;;;5.43;;
59974;SDS011;62136;-35.664;-63.766;2024-03-08T07:28:26;6.80;;;5.45;;
59974;SDS011;62136;-35.664;-63.766;2024-03-08T07:30:56;7.53;;;5.35;;
59974;SDS011;62136;-35.664;-63.766;2024-03-08T07:33:51;6.68;;;5.85;;
59974;SDS011;62136;-35.664;-63.766;2024-03-08T07:36:19;5.85;;;5.25;;
59974;SDS011;62136;-35.664;-63.766;2024-03-08T07:38:47;6.47;;;5.32;;
59974;SDS011;62136;-35.664;-63.766;2024-03-08T07:41:15;7.78;;;5.45;;
59974;SDS011;62136;-35.664;-63.766;2024-03-08T07:43:42;9.07;;;6.43;;
59974;SDS011;62136;-35.664;-63.766;2024-03-08T07:46:09;7.88;;;5.43;;
59974;SDS011;62136;-35.664;-63.766;2024-03-08T07:48:36;7.93;;;5.57;;
59974;SDS011;62136;-35.664;-63.766;2024-03-08T07:51:05;6.57;;;5.10;;
59974;SDS011;62136;-35.664;-63.766;2024-03-08T07:53:34;6.90;;;5.13;;
59974;SDS011;62136;-35.664;-63.766;2024-03-08T07:56:01;6.63;;;5.50;;
59974;SDS011;62136;-35.664;-63.766;2024-03-08T07:58:30;7.82;;;5.40;;
59974;SDS011;62136;-35.664;-63.766;2024-03-08T08:00:57;6.80;;;5.60;;
59974;SDS011;62136;-35.664;-63.766;2024-03-08T08:03:24;7.35;;;5.85;;
59974;SDS011;62136;-35.664;-63.766;2024-03-08T08:05:52;7.85;;;5.72;;
59974;SDS011;62136;-35.664;-63.766;2024-03-08T08:08:19;7.82;;;5.63;;
59974;SDS011;62136;-35.664;-63.766;2024-03-08T08:10:46;9.27;;;6.18;;
59974;SDS011;62136;-35.664;-63.766;2024-03-08T08:13:14;9.02;;;5.32;;
59974;SDS011;62136;-35.664;-63.766;2024-03-08T08:15:43;7.18;;;5.43;;
59974;SDS011;62136;-35.664;-63.766;2024-03-08T08:18:11;7.75;;;5.57;;
59974;SDS011;62136;-35.664;-63.766;2024-03-08T08:20:39;7.30;;;5.97;;
59974;SDS011;62136;-35.664;-63.766;2024-03-08T08:23:06;7.28;;;5.43;;
59974;SDS011;62136;-35.664;-63.766;2024-03-08T08:25:34;7.57;;;5.55;;
59974;SDS011;62136;-35.664;-63.766;2024-03-08T08:28:01;6.93;;;5.53;;
59974;SDS011;62136;-35.664;-63.766;2024-03-08T08:30:29;10.30;;;5.78;;
59974;SDS011;62136;-35.664;-63.766;2024-03-08T08:32:58;7.32;;;5.43;;
59974;SDS011;62136;-35.664;-63.766;2024-03-08T08:35:26;7.63;;;5.93;;
59974;SDS011;62136;-35.664;-63.766;2024-03-08T08:37:54;6.93;;;6.10;;
59974;SDS011;62136;-35.664;-63.766;2024-03-08T08:40:21;6.85;;;5.53;;
59974;SDS011;62136;-35.664;-63.766;2024-03-08T08:42:48;7.68;;;5.80;;
59974;SDS011;62136;-35.664;-63.766;2024-03-08T08:45:15;8.73;;;6.40;;
59974;SDS011;62136;-35.664;-63.766;2024-03-08T08:47:46;8.48;;;6.38;;
59974;SDS011;62136;-35.664;-63.766;2024-03-08T08:50:15;7.85;;;6.13;;
59974;SDS011;62136;-35.664;-63.766;2024-03-08T08:52:48;8.48;;;5.93;;
59974;SDS011;62136;-35.664;-63.766;2024-03-08T08:55:15;7.00;;;5.72;;
59974;SDS011;62136;-35.664;-63.766;2024-03-08T08:57:46;8.48;;;5.93;;
59974;SDS011;62136;-35.664;-63.766;2024-03-08T09:00:14;8.32;;;5.90;;
59974;SDS011;62136;-35.664;-63.766;2024-03-08T09:02:41;7.38;;;5.85;;
59974;SDS011;62136;-35.664;-63.766;2024-03-08T09:05:09;8.15;;;6.18;;
59974;SDS011;62136;-35.664;-63.766;2024-03-08T09:07:37;8.15;;;5.90;;
59974;SDS011;62136;-35.664;-63.766;2024-03-08T09:10:04;7.53;;;6.20;;
59974;SDS011;62136;-35.664;-63.766;2024-03-08T09:12:31;8.68;;;6.18;;
59974;SDS011;62136;-35.664;-63.766;2024-03-08T09:14:58;8.68;;;6.20;;
59974;SDS011;62136;-35.664;-63.766;2024-03-08T09:17:25;7.93;;;6.00;;
59974;SDS011;62136;-35.664;-63.766;2024-03-08T09:19:52;7.68;;;5.90;;
59974;SDS011;62136;-35.664;-63.766;2024-03-08T09:22:19;9.45;;;6.32;;
59974;SDS011;62136;-35.664;-63.766;2024-03-08T09:24:46;9.07;;;6.18;;
59974;SDS011;62136;-35.664;-63.766;2024-03-08T09:27:13;8.40;;;5.93;;
59974;SDS011;62136;-35.664;-63.766;2024-03-08T09:29:41;7.88;;;5.68;;
59974;SDS011;62136;-35.664;-63.766;2024-03-08T09:32:10;9.10;;;6.05;;
59974;SDS011;62136;-35.664;-63.766;2024-03-08T09:34:37;7.13;;;5.90;;
59974;SDS011;62136;-35.664;-63.766;2024-03-08T09:37:05;8.18;;;5.75;;
59974;SDS011;62136;-35.664;-63.766;2024-03-08T09:39:34;7.40;;;6.18;;
59974;SDS011;62136;-35.664;-63.766;2024-03-08T09:42:01;7.68;;;5.78;;
59974;SDS011;62136;-35.664;-63.766;2024-03-08T09:44:29;6.57;;;5.63;;
59974;SDS011;62136;-35.664;-63.766;2024-03-08T09:46:56;11.45;;;6.07;;
59974;SDS011;62136;-35.664;-63.766;2024-03-08T09:49:24;7.90;;;5.82;;
59974;SDS011;62136;-35.664;-63.766;2024-03-08T09:51:51;7.80;;;5.85;;
59974;SDS011;62136;-35.664;-63.766;2024-03-08T09:54:18;8.88;;;6.13;;
59974;SDS011;62136;-35.664;-63.766;2024-03-08T09:56:47;7.13;;;5.82;;
59974;SDS011;62136;-35.664;-63.766;2024-03-08T09:59:16;8.98;;;5.97;;
59974;SDS011;62136;-35.664;-63.766;2024-03-08T10:01:53;9.88;;;6.65;;
59974;SDS011;62136;-35.664;-63.766;2024-03-08T10:04:25;7.40;;;5.40;;
59974;SDS011;62136;-35.664;-63.766;2024-03-08T10:06:53;8.38;;;5.63;;
59974;SDS011;62136;-35.664;-63.766;2024-03-08T10:09:22;7.93;;;5.85;;
59974;SDS011;62136;-35.664;-63.766;2024-03-08T10:11:50;8.23;;;5.72;;
59974;SDS011;62136;-35.664;-63.766;2024-03-08T10:14:23;7.13;;;5.53;;
59974;SDS011;62136;-35.664;-63.766;2024-03-08T10:16:54;8.10;;;6.47;;
59974;SDS011;62136;-35.664;-63.766;2024-03-08T10:19:25;8.32;;;6.13;;
59974;SDS011;62136;-35.664;-63.766;2024-03-08T10:21:55;8.57;;;5.93;;
59974;SDS011;62136;-35.664;-63.766;2024-03-08T10:24:24;7.57;;;5.80;;
59974;SDS011;62136;-35.664;-63.766;2024-03-08T10:27:01;8.52;;;6.13;;
59974;SDS011;62136;-35.664;-63.766;2024-03-08T10:29:32;7.55;;;5.60;;
59974;SDS011;62136;-35.664;-63.766;2024-03-08T10:31:59;8.05;;;5.82;;
59974;SDS011;62136;-35.664;-63.766;2024-03-08T10:34:31;9.25;;;6.25;;
59974;SDS011;62136;-35.664;-63.766;2024-03-08T10:37:00;10.63;;;6.20;;
59974;SDS011;62136;-35.664;-63.766;2024-03-08T10:39:33;7.70;;;5.75;;
59974;SDS011;62136;-35.664;-63.766;2024-03-08T10:42:05;8.02;;;5.70;;
59974;SDS011;62136;-35.664;-63.766;2024-03-08T10:44:53;8.07;;;6.05;;
59974;SDS011;62136;-35.664;-63.766;2024-03-08T10:47:34;7.25;;;5.50;;
59974;SDS011;62136;-35.664;-63.766;2024-03-08T10:50:17;8.00;;;6.00;;
59974;SDS011;62136;-35.664;-63.766;2024-03-08T10:52:51;8.73;;;6.13;;
59974;SDS011;62136;-35.664;-63.766;2024-03-08T10:55:18;7.95;;;5.75;;
59974;SDS011;62136;-35.664;-63.766;2024-03-08T10:57:46;7.80;;;5.43;;
59974;SDS011;62136;-35.664;-63.766;2024-03-08T11:00:14;8.25;;;5.45;;
59974;SDS011;62136;-35.664;-63.766;2024-03-08T11:02:45;6.82;;;5.22;;
59974;SDS011;62136;-35.664;-63.766;2024-03-08T11:05:55;7.72;;;5.85;;
59974;SDS011;62136;-35.664;-63.766;2024-03-08T11:10:49;8.15;;;5.40;;
59974;SDS011;62136;-35.664;-63.766;2024-03-08T11:13:37;9.02;;;5.55;;
59974;SDS011;62136;-35.664;-63.766;2024-03-08T11:16:36;9.70;;;5.80;;
59974;SDS011;62136;-35.664;-63.766;2024-03-08T11:19:01;8.80;;;5.60;;
59974;SDS011;62136;-35.664;-63.766;2024-03-08T11:21:59;8.95;;;5.32;;
59974;SDS011;62136;-35.664;-63.766;2024-03-08T11:24:28;8.13;;;5.40;;
59974;SDS011;62136;-35.664;-63.766;2024-03-08T11:27:05;7.50;;;5.00;;
59974;SDS011;62136;-35.664;-63.766;2024-03-08T11:29:35;8.63;;;5.28;;
59974;SDS011;62136;-35.664;-63.766;2024-03-08T11:34:36;6.72;;;4.93;;
59974;SDS011;62136;-35.664;-63.766;2024-03-08T11:37:15;6.75;;;5.30;;
59974;SDS011;62136;-35.664;-63.766;2024-03-08T11:39:50;7.57;;;5.43;;
59974;SDS011;62136;-35.664;-63.766;2024-03-08T11:42:18;7.85;;;5.13;;
59974;SDS011;62136;-35.664;-63.766;2024-03-08T11:44:46;8.18;;;4.82;;
59974;SDS011;62136;-35.664;-63.766;2024-03-08T11:47:14;9.05;;;5.68;;
59974;SDS011;62136;-35.664;-63.766;2024-03-08T11:49:42;9.70;;;5.28;;
59974;SDS011;62136;-35.664;-63.766;2024-03-08T11:52:14;7.57;;;5.00;;
59974;SDS011;62136;-35.664;-63.766;2024-03-08T11:54:54;7.03;;;4.80;;
59974;SDS011;62136;-35.664;-63.766;2024-03-08T11:57:22;9.38;;;4.50;;
59974;SDS011;62136;-35.664;-63.766;2024-03-08T11:59:53;7.50;;;4.70;;
59974;SDS011;62136;-35.664;-63.766;2024-03-08T12:02:26;9.15;;;4.60;;
59974;SDS011;62136;-35.664;-63.766;2024-03-08T12:04:59;8.77;;;5.68;;
59974;SDS011;62136;-35.664;-63.766;2024-03-08T12:07:29;8.68;;;4.65;;
59974;SDS011;62136;-35.664;-63.766;2024-03-08T12:10:17;9.57;;;5.32;;
59974;SDS011;62136;-35.664;-63.766;2024-03-08T12:12:53;8.40;;;4.60;;
59974;SDS011;62136;-35.664;-63.766;2024-03-08T12:15:24;7.20;;;4.38;;
59974;SDS011;62136;-35.664;-63.766;2024-03-08T12:17:53;8.07;;;4.75;;
59974;SDS011;62136;-35.664;-63.766;2024-03-08T12:20:25;8.90;;;4.78;;
59974;SDS011;62136;-35.664;-63.766;2024-03-08T12:22:55;10.02;;;4.47;;
59974;SDS011;62136;-35.664;-63.766;2024-03-08T12:25:25;9.77;;;5.00;;
59974;SDS011;62136;-35.664;-63.766;2024-03-08T12:28:08;6.88;;;4.90;;
59974;SDS011;62136;-35.664;-63.766;2024-03-08T12:30:44;9.13;;;4.85;;
59974;SDS011;62136;-35.664;-63.766;2024-03-08T12:33:13;7.45;;;5.00;;
59974;SDS011;62136;-35.664;-63.766;2024-03-08T12:35:41;7.60;;;4.95;;
59974;SDS011;62136;-35.664;-63.766;2024-03-08T12:38:16;9.40;;;4.53;;
59974;SDS011;62136;-35.664;-63.766;2024-03-08T12:40:43;8.70;;;4.75;;
59974;SDS011;62136;-35.664;-63.766;2024-03-08T12:43:10;7.28;;;4.50;;
59974;SDS011;62136;-35.664;-63.766;2024-03-08T12:45:37;10.13;;;4.97;;
59974;SDS011;62136;-35.664;-63.766;2024-03-08T12:48:12;8.05;;;4.45;;
59974;SDS011;62136;-35.664;-63.766;2024-03-08T12:50:41;7.00;;;4.20;;
59974;SDS011;62136;-35.664;-63.766;2024-03-08T12:53:13;6.18;;;4.30;;
59974;SDS011;62136;-35.664;-63.766;2024-03-08T12:55:40;6.80;;;4.55;;
59974;SDS011;62136;-35.664;-63.766;2024-03-08T12:58:07;7.95;;;4.53;;
59974;SDS011;62136;-35.664;-63.766;2024-03-08T13:00:35;6.85;;;4.30;;
59974;SDS011;62136;-35.664;-63.766;2024-03-08T13:03:02;8.27;;;4.97;;
59974;SDS011;62136;-35.664;-63.766;2024-03-08T13:05:32;8.23;;;4.18;;
59974;SDS011;62136;-35.664;-63.766;2024-03-08T13:07:59;6.78;;;4.53;;
59974;SDS011;62136;-35.664;-63.766;2024-03-08T13:10:26;8.18;;;4.75;;
59974;SDS011;62136;-35.664;-63.766;2024-03-08T13:12:53;6.15;;;4.38;;
59974;SDS011;62136;-35.664;-63.766;2024-03-08T13:15:20;6.10;;;4.03;;
59974;SDS011;62136;-35.664;-63.766;2024-03-08T13:17:47;6.63;;;4.03;;
59974;SDS011;62136;-35.664;-63.766;2024-03-08T13:20:15;8.32;;;4.47;;
59974;SDS011;62136;-35.664;-63.766;2024-03-08T13:22:47;8.57;;;4.40;;
59974;SDS011;62136;-35.664;-63.766;2024-03-08T13:25:14;7.57;;;4.63;;
59974;SDS011;62136;-35.664;-63.766;2024-03-08T13:27:41;8.65;;;4.63;;
59974;SDS011;62136;-35.664;-63.766;2024-03-08T13:30:09;8.95;;;3.97;;
59974;SDS011;62136;-35.664;-63.766;2024-03-08T13:32:41;8.05;;;3.95;;
59974;SDS011;62136;-35.664;-63.766;2024-03-08T13:35:11;8.23;;;3.97;;
59974;SDS011;62136;-35.664;-63.766;2024-03-08T13:37:39;7.65;;;4.07;;
59974;SDS011;62136;-35.664;-63.766;2024-03-08T13:40:07;9.60;;;4.22;;
59974;SDS011;62136;-35.664;-63.766;2024-03-08T13:42:42;9.77;;;4.03;;
59974;SDS011;62136;-35.664;-63.766;2024-03-08T13:45:09;7.72;;;4.25;;
59974;SDS011;62136;-35.664;-63.766;2024-03-08T13:47:40;7.93;;;4.32;;
59974;SDS011;62136;-35.664;-63.766;2024-03-08T13:50:09;6.85;;;4.15;;
59974;SDS011;62136;-35.664;-63.766;2024-03-08T13:52:49;9.18;;;4.25;;
59974;SDS011;62136;-35.664;-63.766;2024-03-08T13:55:20;7.85;;;3.80;;
59974;SDS011;62136;-35.664;-63.766;2024-03-08T13:57:48;6.43;;;3.55;;
59974;SDS011;62136;-35.664;-63.766;2024-03-08T14:00:16;8.43;;;4.10;;
59974;SDS011;62136;-35.664;-63.766;2024-03-08T14:02:47;6.00;;;4.28;;
59974;SDS011;62136;-35.664;-63.766;2024-03-08T14:05:17;7.15;;;4.03;;
59974;SDS011;62136;-35.664;-63.766;2024-03-08T14:07:47;8.43;;;3.95;;
59974;SDS011;62136;-35.664;-63.766;2024-03-08T14:10:15;10.48;;;4.30;;
59974;SDS011;62136;-35.664;-63.766;2024-03-08T14:12:45;6.70;;;4.50;;
59974;SDS011;62136;-35.664;-63.766;2024-03-08T14:15:14;6.28;;;4.03;;
59974;SDS011;62136;-35.664;-63.766;2024-03-08T14:17:42;6.25;;;3.90;;
59974;SDS011;62136;-35.664;-63.766;2024-03-08T14:20:12;6.85;;;4.78;;
59974;SDS011;62136;-35.664;-63.766;2024-03-08T14:22:39;7.13;;;4.10;;
59974;SDS011;62136;-35.664;-63.766;2024-03-08T14:25:06;6.05;;;4.43;;
59974;SDS011;62136;-35.664;-63.766;2024-03-08T14:27:44;6.70;;;4.00;;